KSEG/SEG METAR and TAF weather

Enter ICAO airport designator
Station Type Date Time Source
KSEG METAR 2021/05/11 22:53 UTC NOAA

KSEG 112253Z AUTO 30007G14KT 10SM CLR 15/M03 A3005 RMK AO2 SLP177 T01501033 $


Station Type Date Time Source
KSEG Decoded METAR 2021/05/11 22:53 UTC NOAA

SELINSGROVE PENN VALLEY AIRPORT , PA, United States (KSEG) 40-49N 076-52W 134M
May 11, 2021 - 06:53 PM EDT / 2021.05.11 2253 UTC
Wind: from the WNW (300 degrees) at 8 MPH (7 KT) gusting to 16 MPH (14 KT):0
Visibility: 10 mile(s):0
Sky conditions: clear
Temperature: 59.0 F (15.0 C)
Dew Point: 26.1 F (-3.3 C)
Relative Humidity: 28%
Pressure (altimeter): 30.05 in. Hg (1017 hPa)
ob: KSEG 112253Z AUTO 30007G14KT 10SM CLR 15/M03 A3005 RMK AO2 SLP177 T01501033
cycle: 23

Station Type Date Time Source
KSEG TAF UTC NOAA

Error!

Example: see airport list